WetterOnline ( https://www.wetteronline.ch )

Wetter aktuell Seelow

Aktuelles Wetter: Manschnow (16m)

6-stündlich | Neueste Meldungen
Ortszeit Temperatur Wetter
Do, 13.08. 2:00 16.2° C leicht bewölkt
Mi, 12.08. 20:00 26.9° C leicht bewölkt
Mi, 12.08. 14:00 29.1° C wolkenlos
Mi, 12.08. 8:00 17.2° C wolkenlos
Mi, 12.08. 2:00 19.6° C wolkenlos
Di, 11.08. 20:00 28.0° C wolkenlos
Di, 11.08. 14:00 29.8° C wolkenlos
Di, 11.08. 8:00 20.0° C wolkenlos
Ortszeit Temperatur Wetter
Do, 13.08. 2:10 16.2° C leicht bewölkt
Do, 13.08. 2:00 16.2° C leicht bewölkt
Do, 13.08. 1:50 16.2° C leicht bewölkt
Do, 13.08. 1:40 16.1° C fast wolkenlos
Do, 13.08. 1:30 16.2° C wolkenlos
Do, 13.08. 1:20 16.2° C wolkenlos
Do, 13.08. 1:00 17.5° C wolkenlos
Do, 13.08. 0:30 17.8° C fast wolkenlos
Do, 13.08. 0:00 18.2° C leicht bewölkt
Mi, 12.08. 23:30 18.8° C leicht bewölkt
Mi, 12.08. 23:00 20.3° C leicht bewölkt
Ortszeit Relative Feuchte Sichtweite
Do, 13.08. 2:00 67% 50 km
Mi, 12.08. 20:00 32% 55 km
Mi, 12.08. 14:00 30% 50 km
Mi, 12.08. 8:00 73% 50 km
Mi, 12.08. 2:00 63% 50 km
Di, 11.08. 20:00 44% 50 km
Di, 11.08. 14:00 40% 45 km
Di, 11.08. 8:00 76% 30 km
Ortszeit Relative Feuchte Sichtweite
Do, 13.08. 2:10 67% -
Do, 13.08. 2:00 67% 50 km
Do, 13.08. 1:50 67% -
Do, 13.08. 1:40 68% -
Do, 13.08. 1:30 69% 45 km
Do, 13.08. 1:20 69% -
Do, 13.08. 1:00 62% 50 km
Do, 13.08. 0:30 62% 40 km
Do, 13.08. 0:00 60% 50 km
Mi, 12.08. 23:30 58% 60 km
Mi, 12.08. 23:00 52% 45 km
Ortszeit Niederschlagsmenge Niederschlagsart
Do, 13.08. 2:00 0.0 l/m2 in 6 Std. -
Mi, 12.08. 20:00 0.0 l/m2 in 12 Std. -
Mi, 12.08. 14:00 0.0 l/m2 in 6 Std. -
Mi, 12.08. 8:00 0.0 l/m2 in 12 Std. -
Mi, 12.08. 2:00 0.0 l/m2 in 6 Std. -
Di, 11.08. 20:00 0.0 l/m2 in 12 Std. -
Di, 11.08. 14:00 0.0 l/m2 in 6 Std. -
Di, 11.08. 8:00 0.0 l/m2 in 12 Std. -
Ortszeit Niederschlagsmenge Niederschlagsart
Do, 13.08. 2:10 keine Meldung -
Do, 13.08. 2:00 0.0 l/m2 in 1 Std. -
Do, 13.08. 1:50 keine Meldung -
Do, 13.08. 1:40 keine Meldung -
Do, 13.08. 1:30 0.0 l/m2 in 1 Std. -
Do, 13.08. 1:20 keine Meldung -
Do, 13.08. 1:00 0.0 l/m2 in 1 Std. -
Do, 13.08. 0:30 0.0 l/m2 in 1 Std. -
Do, 13.08. 0:00 0.0 l/m2 in 1 Std. -
Mi, 12.08. 23:30 0.0 l/m2 in 1 Std. -
Mi, 12.08. 23:00 0.0 l/m2 in 1 Std. -
Ortszeit Stärke Spitze Richtung
km/h Bft. km/h Grad Sektor
Do, 13.08. 2:00 6 1 20 100° O
Mi, 12.08. 20:00 11 2 29 60° NO
Mi, 12.08. 14:00 15 3 31 70° O
Mi, 12.08. 8:00 9 2 22 80° O
Mi, 12.08. 2:00 11 2 20 80° O
Di, 11.08. 20:00 7 2 32 70° O
Di, 11.08. 14:00 14 3 32 60° NO
Di, 11.08. 8:00 11 2 22 70° O
Ortszeit Stärke Spitze Richtung
km/h Bft. km/h Grad Sektor
Do, 13.08. 2:10 7 2 - 80° O
Do, 13.08. 2:00 6 1 9 100° O
Do, 13.08. 1:50 6 1 - 100° O
Do, 13.08. 1:40 6 1 - 90° O
Do, 13.08. 1:30 4 1 11 80° O
Do, 13.08. 1:20 4 1 - 80° O
Do, 13.08. 1:00 7 2 11 80° O
Do, 13.08. 0:30 6 1 7 80° O
Do, 13.08. 0:00 6 1 13 80° O
Mi, 12.08. 23:30 6 1 13 90° O
Mi, 12.08. 23:00 7 2 14 80° O
Ortszeit Untergrenze Bedeckung Gattung
total tief tief mittel hoch
Do, 13.08. 2:00 10500 m 3/8 0/8 - - -
Mi, 12.08. 20:00 10500 m 8/8 0/8 - - -
Mi, 12.08. 14:00 - 0/8 0/8 - - -
Mi, 12.08. 8:00 - 0/8 0/8 - - -
Mi, 12.08. 2:00 - 0/8 0/8 - - -
Di, 11.08. 20:00 - 0/8 0/8 - - -
Di, 11.08. 14:00 - 0/8 0/8 - - -
Di, 11.08. 8:00 - 0/8 0/8 - - -
Ortszeit Bedeckungsgrad in Achtel und Wolkenuntergrenze
Do, 13.08. 2:10 3(10500m)
Do, 13.08. 2:00 3(10500m)
Do, 13.08. 1:50 3(10500m)
Do, 13.08. 1:40 1(10500m)
Do, 13.08. 1:30 1(10500m)
Do, 13.08. 1:20 keine Wolken
Do, 13.08. 1:00 keine Wolken
Do, 13.08. 0:30 2(10500m)
Do, 13.08. 0:00 5(10500m) 6(10500m)
Mi, 12.08. 23:30 4(10500m) 2(10500m)
Mi, 12.08. 23:00 5(10500m) 6(10500m)
Ortszeit Luftdruck NN (hPa) Tendenz (hPa in 3 Std.)
Do, 13.08. 2:00 1018 - 0,1
Mi, 12.08. 20:00 1017 - 0,8
Mi, 12.08. 14:00 1020 - 1,2
Mi, 12.08. 8:00 1021 + 0,5
Mi, 12.08. 2:00 1021 + 0,8
Di, 11.08. 20:00 1019 - 0,1
Di, 11.08. 14:00 1020 - 0,4
Di, 11.08. 8:00 1020 + 0,4
Ortszeit Luftdruck NN (hPa) Tendenz (hPa in 3 Std.)
Do, 13.08. 2:10 1017 keine Meldung
Do, 13.08. 2:00 1018 - 0,1
Do, 13.08. 1:50 1018 keine Meldung
Do, 13.08. 1:40 1018 keine Meldung
Do, 13.08. 1:30 1018 - 0,2
Do, 13.08. 1:20 1018 keine Meldung
Do, 13.08. 1:00 1018 0,0
Do, 13.08. 0:30 1018 + 0,1
Do, 13.08. 0:00 1018 + 0,4
Mi, 12.08. 23:30 1018 + 0,3
Mi, 12.08. 23:00 1018 + 0,2
Ortszeit Schneehöhe (cm)
Do, 13.08. 2:00 -
Mi, 12.08. 20:00 -
Mi, 12.08. 14:00 -
Mi, 12.08. 8:00 -
Mi, 12.08. 2:00 -
Di, 11.08. 20:00 -
Di, 11.08. 14:00 -
Di, 11.08. 8:00 -
Ortszeit Schneehöhe (cm)
Do, 13.08. 2:10 -
Do, 13.08. 2:00 -
Do, 13.08. 1:50 -
Do, 13.08. 1:40 -
Do, 13.08. 1:30 -
Do, 13.08. 1:20 -
Do, 13.08. 1:00 -
Do, 13.08. 0:30 -
Do, 13.08. 0:00 -
Mi, 12.08. 23:30 -
Mi, 12.08. 23:00 -
Link zu dieser Seite / Seite empfehlen

Das Wetter in ...